Time;durP1;ratioP1;P1;durP2;ratioP2;P2;SDS_P1;SDS_P2;PMS_P1;PMS_P2;Temp;Humidity;BMP_temperature;BMP_pressure;BME280_temperature;BME280_humidity;BME280_pressure;Samples;Min_cycle;Max_cycle;Signal;HPM_P1;HPM_P2
2024/02/29 00:00:00;;;;;;;;;;;3.90;71.90;;;;;;5024276;28;20107;-76
2024/02/29 00:02:25;;;;;;;;;;;3.80;72.30;;;;;;5023190;28;19993;-76
2024/02/29 00:04:51;;;;;;;;;;;3.90;72.80;;;;;;5025286;28;19989;-76
2024/02/29 00:07:16;;;;;;;;;;;3.80;72.80;;;;;;5024593;28;19990;-76
2024/02/29 00:09:42;;;;;;;;;;;3.80;73.60;;;;;;5025393;28;19994;-76
2024/02/29 00:12:08;;;;;;;;;;;3.80;73.80;;;;;;5024402;28;20100;-75
2024/02/29 00:14:36;;;;;;;;;;;3.80;73.70;;;;;;5024523;28;20509;-76
2024/02/29 00:17:02;;;;;;;;;;;3.70;73.90;;;;;;5024485;28;19989;-75
2024/02/29 00:19:27;;;;;;;;;;;3.80;74.10;;;;;;5019408;28;19992;-75
2024/02/29 00:21:53;;;;;;;;;;;3.80;74.10;;;;;;5024247;28;20630;-75
2024/02/29 00:24:19;;;;;;;;;;;3.70;74.40;;;;;;5024342;28;20106;-75
2024/02/29 00:26:45;;;;;;;;;;;3.70;74.80;;;;;;5023196;28;19985;-75
2024/02/29 00:29:11;;;;;;;;;;;3.60;75.00;;;;;;5024121;28;19985;-75
2024/02/29 00:31:41;;;;;;;;;;;3.60;75.30;;;;;;5024400;28;20044;-75
2024/02/29 00:34:06;;;;;;;;;;;3.50;75.60;;;;;;5024113;28;20013;-75
2024/02/29 00:36:32;;;;;;;;;;;3.50;75.90;;;;;;5024494;28;20024;-75
2024/02/29 00:38:58;;;;;;;;;;;3.40;76.70;;;;;;5024028;28;20011;-75
2024/02/29 00:41:23;;;;;;;;;;;3.30;77.10;;;;;;5024652;28;19989;-75
2024/02/29 00:43:49;;;;;;;;;;;3.20;77.70;;;;;;5024691;28;19989;-75
2024/02/29 00:46:14;;;;;;;;;;;3.20;78.00;;;;;;5021458;28;19990;-75
2024/02/29 00:48:40;;;;;;;;;;;3.20;78.30;;;;;;5024913;28;20013;-75
2024/02/29 00:51:05;;;;;;;;;;;3.20;78.10;;;;;;5024194;28;20016;-75
2024/02/29 00:53:31;;;;;;;;;;;3.20;78.10;;;;;;5022365;28;19986;-75
2024/02/29 00:55:56;;;;;;;;;;;3.20;78.40;;;;;;5021122;28;19996;-75
2024/02/29 00:58:22;;;;;;;;;;;3.20;78.50;;;;;;5020580;28;20288;-75
2024/02/29 01:00:48;;;;;;;;;;;3.20;78.50;;;;;;5023993;28;20109;-75
2024/02/29 01:03:13;;;;;;;;;;;3.00;79.00;;;;;;5023584;28;20243;-75
2024/02/29 01:05:39;;;;;;;;;;;3.00;79.40;;;;;;5024118;28;20001;-75
2024/02/29 01:08:05;;;;;;;;;;;3.00;79.50;;;;;;5023434;28;19990;-75
2024/02/29 01:10:31;;;;;;;;;;;3.00;79.60;;;;;;5023008;28;20454;-75
2024/02/29 01:12:56;;;;;;;;;;;3.00;79.30;;;;;;5023997;28;20009;-75
2024/02/29 01:15:22;;;;;;;;;;;3.00;79.40;;;;;;5022138;28;20063;-75
2024/02/29 01:17:47;;;;;;;;;;;2.80;80.00;;;;;;5023652;28;20101;-75
2024/02/29 01:20:13;;;;;;;;;;;2.70;80.90;;;;;;5016494;28;20716;-75
2024/02/29 01:22:39;;;;;;;;;;;2.70;81.20;;;;;;5018870;28;20088;-75
2024/02/29 01:25:05;;;;;;;;;;;2.70;81.40;;;;;;5020748;28;19986;-75
2024/02/29 01:27:30;;;;;;;;;;;2.70;81.60;;;;;;5021315;28;20073;-75
2024/02/29 01:29:56;;;;;;;;;;;2.70;82.10;;;;;;5023300;28;19989;-76
2024/02/29 01:32:21;;;;;;;;;;;2.70;82.60;;;;;;5022887;28;20009;-75
2024/02/29 01:34:47;;;;;;;;;;;2.70;83.00;;;;;;5023181;28;19993;-75
2024/02/29 01:37:13;;;;;;;;;;;2.70;83.20;;;;;;5021681;28;19993;-76
2024/02/29 01:39:39;;;;;;;;;;;2.60;83.70;;;;;;5021885;28;20349;-76
2024/02/29 01:42:04;;;;;;;;;;;2.50;84.20;;;;;;5021594;28;19986;-76
2024/02/29 01:44:30;;;;;;;;;;;2.50;84.60;;;;;;5023170;28;20676;-76
2024/02/29 01:46:55;;;;;;;;;;;2.40;84.80;;;;;;5021866;28;20884;-76
2024/02/29 01:49:24;;;;;;;;;;;2.40;85.20;;;;;;5022621;28;20664;-75
2024/02/29 01:51:50;;;;;;;;;;;2.30;85.60;;;;;;5019980;28;20009;-75
2024/02/29 01:54:16;;;;;;;;;;;2.30;85.90;;;;;;5022407;28;20540;-75
2024/02/29 01:56:41;;;;;;;;;;;2.30;86.20;;;;;;5022850;28;20507;-75
2024/02/29 01:59:07;;;;;;;;;;;2.30;86.40;;;;;;5016829;28;20026;-75
2024/02/29 02:01:33;;;;;;;;;;;2.30;86.30;;;;;;5021658;28;19990;-75
2024/02/29 02:03:59;;;;;;;;;;;2.40;86.50;;;;;;5023109;28;19993;-75
2024/02/29 02:06:24;;;;;;;;;;;2.20;86.80;;;;;;5019420;28;19985;-75
2024/02/29 02:08:50;;;;;;;;;;;2.20;87.10;;;;;;5020329;28;19989;-75
2024/02/29 02:11:16;;;;;;;;;;;2.30;87.20;;;;;;5016439;28;19996;-75
2024/02/29 02:13:41;;;;;;;;;;;2.20;87.80;;;;;;5021992;28;19990;-75
2024/02/29 02:16:07;;;;;;;;;;;2.30;87.10;;;;;;5022187;28;20033;-75
2024/02/29 02:18:33;;;;;;;;;;;2.30;87.10;;;;;;5021003;28;20059;-75
2024/02/29 02:20:59;;;;;;;;;;;2.30;87.00;;;;;;5022673;28;20000;-75
2024/02/29 02:23:24;;;;;;;;;;;2.20;87.20;;;;;;5014815;28;20091;-75
2024/02/29 02:25:50;;;;;;;;;;;2.20;87.40;;;;;;5019148;28;20020;-75
2024/02/29 02:28:16;;;;;;;;;;;2.10;87.50;;;;;;5018312;28;19991;-75
2024/02/29 02:30:42;;;;;;;;;;;2.10;87.90;;;;;;5021681;28;19993;-74
2024/02/29 02:33:10;;;;;;;;;;;2.10;87.90;;;;;;5022046;28;20087;-75
2024/02/29 02:35:35;;;;;;;;;;;2.10;87.90;;;;;;5021788;28;20029;-74
2024/02/29 02:38:04;;;;;;;;;;;2.00;88.00;;;;;;5022247;28;20075;-75
2024/02/29 02:40:30;;;;;;;;;;;2.00;88.40;;;;;;5018311;28;19985;-75
2024/02/29 02:42:55;;;;;;;;;;;2.00;88.70;;;;;;5022718;28;20012;-75
2024/02/29 02:45:21;;;;;;;;;;;1.90;89.10;;;;;;5021869;28;20348;-75
2024/02/29 02:47:46;;;;;;;;;;;1.80;89.20;;;;;;5021367;28;19994;-75
2024/02/29 02:50:13;;;;;;;;;;;1.80;89.80;;;;;;5021424;28;20944;-75
2024/02/29 02:52:38;;;;;;;;;;;1.70;90.00;;;;;;5021468;28;20008;-75
2024/02/29 02:55:04;;;;;;;;;;;1.70;90.30;;;;;;5019354;28;19990;-75
2024/02/29 02:57:30;;;;;;;;;;;1.80;90.30;;;;;;5021391;28;20103;-75
2024/02/29 02:59:55;;;;;;;;;;;1.70;90.40;;;;;;5021209;28;20201;-75
2024/02/29 03:02:21;;;;;;;;;;;1.60;90.70;;;;;;5021479;28;19993;-75
2024/02/29 03:04:46;;;;;;;;;;;1.50;90.90;;;;;;5020227;28;19993;-75
2024/02/29 03:07:12;;;;;;;;;;;1.60;91.00;;;;;;5021569;28;19990;-75
2024/02/29 03:09:38;;;;;;;;;;;1.60;91.20;;;;;;5021122;28;20693;-75
2024/02/29 03:12:03;;;;;;;;;;;1.50;91.30;;;;;;5021331;28;20002;-75
2024/02/29 03:14:29;;;;;;;;;;;1.50;91.30;;;;;;5018702;28;19989;-74
2024/02/29 03:16:55;;;;;;;;;;;1.60;91.40;;;;;;5021354;28;20543;-74
2024/02/29 03:19:20;;;;;;;;;;;1.60;91.30;;;;;;5019359;28;20044;-75
2024/02/29 03:21:46;;;;;;;;;;;1.60;91.30;;;;;;5020370;28;20036;-74
2024/02/29 03:24:11;;;;;;;;;;;1.60;91.40;;;;;;5025220;28;19989;-75
2024/02/29 03:26:37;;;;;;;;;;;1.60;91.40;;;;;;5025007;28;19993;-75
2024/02/29 03:29:02;;;;;;;;;;;1.70;91.30;;;;;;5022108;28;19993;-75
2024/02/29 03:31:28;;;;;;;;;;;1.70;91.20;;;;;;5023201;28;20002;-75
2024/02/29 03:33:53;;;;;;;;;;;2.00;90.80;;;;;;5024205;28;20092;-75
2024/02/29 03:36:19;;;;;;;;;;;2.10;90.50;;;;;;5025143;28;20047;-75
2024/02/29 03:38:45;;;;;;;;;;;2.20;90.30;;;;;;5024251;28;19985;-75
2024/02/29 03:41:10;;;;;;;;;;;2.30;89.90;;;;;;5025129;28;19989;-75
2024/02/29 03:43:36;;;;;;;;;;;2.50;89.60;;;;;;5025146;28;21026;-75
2024/02/29 03:46:02;;;;;;;;;;;2.40;89.80;;;;;;5025139;28;20149;-75
2024/02/29 03:48:28;;;;;;;;;;;2.30;90.20;;;;;;5021019;28;20017;-75
2024/02/29 03:50:54;;;;;;;;;;;2.30;90.40;;;;;;5024884;28;20428;-75
2024/02/29 03:53:19;;;;;;;;;;;2.30;90.20;;;;;;5024018;28;20002;-75
2024/02/29 03:55:48;;;;;;;;;;;2.30;90.50;;;;;;5024817;28;20838;-75
2024/02/29 03:58:14;;;;;;;;;;;2.20;90.70;;;;;;5021997;28;20338;-75
2024/02/29 04:00:39;;;;;;;;;;;2.10;91.00;;;;;;5024455;28;19989;-75
2024/02/29 04:03:05;;;;;;;;;;;2.10;91.20;;;;;;5024816;28;19990;-75
2024/02/29 04:05:31;;;;;;;;;;;2.20;91.30;;;;;;5024095;28;19986;-75
2024/02/29 04:08:03;;;;;;;;;;;2.20;91.20;;;;;;5022693;28;20072;-75
2024/02/29 04:10:31;;;;;;;;;;;2.20;90.90;;;;;;5023978;28;19990;-75
2024/02/29 04:12:57;;;;;;;;;;;2.30;91.00;;;;;;5018563;28;20004;-75
2024/02/29 04:15:23;;;;;;;;;;;2.20;91.00;;;;;;5021841;28;20645;-75
2024/02/29 04:17:48;;;;;;;;;;;2.30;91.20;;;;;;5024281;28;20051;-75
2024/02/29 04:20:14;;;;;;;;;;;2.30;91.10;;;;;;5024374;28;19992;-74
2024/02/29 04:22:40;;;;;;;;;;;2.40;91.10;;;;;;5024798;28;20021;-74
2024/02/29 04:25:06;;;;;;;;;;;2.40;91.20;;;;;;5024070;28;20056;-75
2024/02/29 04:27:31;;;;;;;;;;;2.40;91.30;;;;;;5022366;28;19985;-75
2024/02/29 04:29:57;;;;;;;;;;;2.50;91.10;;;;;;5024378;28;20000;-75
2024/02/29 04:32:22;;;;;;;;;;;2.50;91.10;;;;;;5023859;28;20004;-75
2024/02/29 04:34:48;;;;;;;;;;;2.60;91.20;;;;;;5025105;28;19993;-74
2024/02/29 04:37:14;;;;;;;;;;;2.60;91.10;;;;;;5024829;28;19993;-74
2024/02/29 04:39:39;;;;;;;;;;;2.60;90.90;;;;;;5021728;28;19986;-74
2024/02/29 04:42:05;;;;;;;;;;;2.60;90.90;;;;;;5022870;28;19986;-75
2024/02/29 04:44:30;;;;;;;;;;;2.60;91.20;;;;;;5024391;28;20593;-75
2024/02/29 04:46:56;;;;;;;;;;;2.60;91.10;;;;;;5022378;28;19997;-75
2024/02/29 04:49:22;;;;;;;;;;;2.70;91.20;;;;;;5024249;28;20021;-75
2024/02/29 04:51:47;;;;;;;;;;;2.70;91.30;;;;;;5022286;28;20017;-75
2024/02/29 04:54:13;;;;;;;;;;;2.60;91.20;;;;;;5023335;28;19994;-75
2024/02/29 04:56:39;;;;;;;;;;;2.70;91.20;;;;;;5023141;28;19989;-74
2024/02/29 04:59:07;;;;;;;;;;;2.70;91.20;;;;;;5023393;28;20116;-74
2024/02/29 05:01:32;;;;;;;;;;;2.80;91.20;;;;;;5021580;28;20035;-77
2024/02/29 05:03:58;;;;;;;;;;;2.90;91.00;;;;;;5020803;28;20496;-75
2024/02/29 05:06:23;;;;;;;;;;;3.00;90.60;;;;;;5023440;28;19986;-75
2024/02/29 05:08:49;;;;;;;;;;;3.20;90.20;;;;;;5020973;28;19990;-76
2024/02/29 05:11:15;;;;;;;;;;;3.20;90.00;;;;;;5022224;28;19990;-76
2024/02/29 05:13:41;;;;;;;;;;;3.30;90.00;;;;;;5023064;28;20081;-76
2024/02/29 05:16:07;;;;;;;;;;;3.30;89.60;;;;;;5023859;28;20085;-76
2024/02/29 05:18:33;;;;;;;;;;;3.30;90.00;;;;;;5024046;28;19986;-76
2024/02/29 05:20:58;;;;;;;;;;;3.30;90.10;;;;;;5023558;28;20048;-76
2024/02/29 05:23:24;;;;;;;;;;;3.40;90.00;;;;;;5023705;28;20079;-75
2024/02/29 05:25:50;;;;;;;;;;;3.10;90.50;;;;;;5023233;28;19992;-76
2024/02/29 05:28:16;;;;;;;;;;;2.90;90.80;;;;;;5023768;28;20449;-76
2024/02/29 05:30:42;;;;;;;;;;;2.80;90.80;;;;;;5023569;28;19993;-76
2024/02/29 05:33:08;;;;;;;;;;;2.70;91.10;;;;;;5023733;28;20085;-75
2024/02/29 05:35:34;;;;;;;;;;;2.70;91.30;;;;;;5023346;28;20043;-76
2024/02/29 05:38:00;;;;;;;;;;;2.60;91.40;;;;;;5023934;28;20046;-75
2024/02/29 05:40:28;;;;;;;;;;;2.60;91.40;;;;;;5023518;28;19994;-75
2024/02/29 05:42:53;;;;;;;;;;;2.60;91.30;;;;;;5023764;28;20005;-76
2024/02/29 05:45:19;;;;;;;;;;;2.60;91.60;;;;;;5022606;28;20095;-76
2024/02/29 05:47:44;;;;;;;;;;;2.60;91.50;;;;;;5022909;28;20816;-76
2024/02/29 05:50:10;;;;;;;;;;;2.60;91.50;;;;;;5023061;28;20021;-75
2024/02/29 05:52:36;;;;;;;;;;;2.70;91.70;;;;;;5023115;28;20005;-76
2024/02/29 05:55:02;;;;;;;;;;;2.60;91.60;;;;;;5022682;28;20072;-76
2024/02/29 05:57:30;;;;;;;;;;;2.40;91.80;;;;;;5023035;28;19986;-75
2024/02/29 05:59:56;;;;;;;;;;;2.40;91.90;;;;;;5022943;28;20472;-76
2024/02/29 06:02:22;;;;;;;;;;;2.60;91.80;;;;;;5022981;28;20065;-76
2024/02/29 06:04:47;;;;;;;;;;;2.50;91.70;;;;;;5021446;28;20000;-75
2024/02/29 06:07:13;;;;;;;;;;;2.50;91.80;;;;;;5022436;28;19994;-75
2024/02/29 06:09:41;;;;;;;;;;;2.50;91.70;;;;;;5011344;28;19997;-75
2024/02/29 06:12:07;;;;;;;;;;;2.50;91.70;;;;;;5022642;28;20001;-76
2024/02/29 06:14:33;;;;;;;;;;;2.60;91.80;;;;;;5017102;28;19993;-76
2024/02/29 06:16:59;;;;;;;;;;;2.60;91.60;;;;;;5021406;28;20100;-75
2024/02/29 06:19:25;;;;;;;;;;;2.60;91.80;;;;;;5022388;28;19982;-75
2024/02/29 06:21:51;;;;;;;;;;;2.70;91.70;;;;;;5022358;28;20361;-76
2024/02/29 06:24:18;;;;;;;;;;;2.70;91.70;;;;;;5022137;28;19997;-76
2024/02/29 06:26:45;;;;;;;;;;;2.70;91.70;;;;;;5022385;28;20449;-76
2024/02/29 06:29:11;;;;;;;;;;;2.70;91.90;;;;;;5022374;28;19986;-76
2024/02/29 06:31:36;;;;;;;;;;;2.60;91.90;;;;;;5021786;28;19997;-75
2024/02/29 06:34:03;;;;;;;;;;;2.60;91.90;;;;;;5022435;28;19985;-76
2024/02/29 06:36:28;;;;;;;;;;;2.70;92.00;;;;;;5022241;28;19989;-76
2024/02/29 06:38:54;;;;;;;;;;;2.70;91.80;;;;;;5022448;28;19986;-76
2024/02/29 06:41:19;;;;;;;;;;;2.80;91.90;;;;;;5022174;28;20085;-76
2024/02/29 06:43:45;;;;;;;;;;;2.90;91.70;;;;;;5022788;28;20076;-76
2024/02/29 06:46:10;;;;;;;;;;;2.90;91.70;;;;;;5022598;28;19985;-75
2024/02/29 06:48:36;;;;;;;;;;;2.80;92.00;;;;;;5020343;28;20021;-76
2024/02/29 06:51:02;;;;;;;;;;;2.80;92.00;;;;;;5022259;28;20381;-76
2024/02/29 06:53:31;;;;;;;;;;;2.90;92.00;;;;;;5022338;28;19986;-75
2024/02/29 06:55:57;;;;;;;;;;;2.90;92.10;;;;;;5021336;28;20671;-75
2024/02/29 06:58:22;;;;;;;;;;;3.00;92.00;;;;;;5025829;28;19985;-75
2024/02/29 07:00:48;;;;;;;;;;;3.00;91.80;;;;;;5026222;28;20769;-76
2024/02/29 07:03:14;;;;;;;;;;;3.00;91.90;;;;;;5026220;28;20094;-76
2024/02/29 07:05:39;;;;;;;;;;;3.00;91.90;;;;;;5026359;28;19989;-75
2024/02/29 07:08:06;;;;;;;;;;;3.00;91.80;;;;;;5026138;28;20766;-76
2024/02/29 07:10:31;;;;;;;;;;;2.90;92.10;;;;;;5014697;28;20424;-75
2024/02/29 07:12:57;;;;;;;;;;;3.00;92.00;;;;;;5026486;28;19993;-75
2024/02/29 07:15:22;;;;;;;;;;;3.10;91.80;;;;;;5025300;28;19993;-75
2024/02/29 07:17:48;;;;;;;;;;;3.10;91.90;;;;;;5025845;28;19985;-76
2024/02/29 07:20:14;;;;;;;;;;;3.10;91.70;;;;;;5025858;28;20077;-75
2024/02/29 07:22:40;;;;;;;;;;;3.20;91.90;;;;;;5025721;28;20804;-75
2024/02/29 07:25:07;;;;;;;;;;;3.20;91.80;;;;;;5024079;28;20427;-75
2024/02/29 07:27:36;;;;;;;;;;;3.20;91.90;;;;;;5025521;28;19985;-76
2024/02/29 07:30:02;;;;;;;;;;;3.20;91.70;;;;;;5025833;28;19993;-76
2024/02/29 07:32:28;;;;;;;;;;;3.30;91.80;;;;;;5025458;28;19982;-76
2024/02/29 07:34:53;;;;;;;;;;;3.30;91.60;;;;;;5025825;28;19996;-76
2024/02/29 07:37:19;;;;;;;;;;;3.30;91.70;;;;;;5025855;28;20018;-75
2024/02/29 07:39:44;;;;;;;;;;;3.40;91.80;;;;;;5025619;28;19993;-75
2024/02/29 07:42:10;;;;;;;;;;;3.30;91.50;;;;;;5025648;28;20086;-76
2024/02/29 07:44:36;;;;;;;;;;;3.30;91.50;;;;;;5025942;28;20028;-75
2024/02/29 07:47:01;;;;;;;;;;;3.40;91.50;;;;;;5025409;28;19993;-76
2024/02/29 07:49:27;;;;;;;;;;;3.40;91.50;;;;;;5025652;28;20017;-76
2024/02/29 07:51:54;;;;;;;;;;;3.40;91.40;;;;;;5025579;28;19994;-76
2024/02/29 07:54:20;;;;;;;;;;;3.50;91.50;;;;;;5025255;28;19986;-76
2024/02/29 07:56:45;;;;;;;;;;;3.60;91.20;;;;;;5025098;28;20038;-76
2024/02/29 07:59:11;;;;;;;;;;;3.70;90.90;;;;;;5025486;28;20164;-76
2024/02/29 08:01:36;;;;;;;;;;;3.70;91.10;;;;;;5025296;28;20093;-76
2024/02/29 08:04:02;;;;;;;;;;;3.60;90.50;;;;;;5026009;28;20076;-76
2024/02/29 08:06:28;;;;;;;;;;;3.80;90.70;;;;;;5025259;28;19985;-76
2024/02/29 08:08:53;;;;;;;;;;;3.80;90.60;;;;;;5019246;28;20019;-76
2024/02/29 08:11:19;;;;;;;;;;;3.90;90.30;;;;;;5018880;28;19986;-75
2024/02/29 08:13:44;;;;;;;;;;;3.90;90.40;;;;;;5025299;28;19986;-76
2024/02/29 08:16:10;;;;;;;;;;;4.10;90.30;;;;;;5024597;28;19986;-75
2024/02/29 08:18:40;;;;;;;;;;;4.10;90.40;;;;;;5024880;28;19989;-76
2024/02/29 08:21:06;;;;;;;;;;;4.20;89.90;;;;;;5017853;28;19990;-75
2024/02/29 08:23:32;;;;;;;;;;;4.20;89.70;;;;;;5024709;28;20008;-76
2024/02/29 08:25:57;;;;;;;;;;;4.30;89.60;;;;;;5025147;28;20345;-76
2024/02/29 08:28:23;;;;;;;;;;;4.50;89.10;;;;;;5024859;28;19993;-76
2024/02/29 08:30:48;;;;;;;;;;;4.60;88.60;;;;;;5024659;28;20508;-76
2024/02/29 08:33:14;;;;;;;;;;;4.60;88.90;;;;;;5024775;28;19986;-76
2024/02/29 08:35:39;;;;;;;;;;;4.60;88.90;;;;;;5024838;28;20061;-76
2024/02/29 08:38:05;;;;;;;;;;;4.60;88.50;;;;;;5024662;28;20886;-76
2024/02/29 08:40:31;;;;;;;;;;;4.80;88.70;;;;;;5024651;28;19992;-76
2024/02/29 08:42:56;;;;;;;;;;;5.00;88.00;;;;;;5024461;28;20006;-76
2024/02/29 08:45:22;;;;;;;;;;;5.30;86.70;;;;;;5024571;28;19989;-75
2024/02/29 08:47:48;;;;;;;;;;;5.70;84.90;;;;;;5023049;28;20020;-76
2024/02/29 08:50:14;;;;;;;;;;;5.80;84.50;;;;;;5024444;28;20389;-76
2024/02/29 08:52:41;;;;;;;;;;;5.80;83.50;;;;;;5023327;28;19993;-76
2024/02/29 08:55:08;;;;;;;;;;;5.70;83.90;;;;;;5024063;28;20048;-76
2024/02/29 08:57:34;;;;;;;;;;;5.80;83.60;;;;;;5024093;28;19996;-76
2024/02/29 08:59:59;;;;;;;;;;;5.70;84.80;;;;;;5023707;28;20674;-76
2024/02/29 09:02:25;;;;;;;;;;;5.60;85.60;;;;;;5023662;28;20079;-76
2024/02/29 09:04:51;;;;;;;;;;;5.50;87.50;;;;;;5023826;28;20441;-75
2024/02/29 09:07:16;;;;;;;;;;;5.60;88.00;;;;;;5022176;28;20047;-76
2024/02/29 09:09:42;;;;;;;;;;;5.70;89.30;;;;;;5023267;28;19990;-76
2024/02/29 09:12:09;;;;;;;;;;;5.40;89.80;;;;;;5023665;28;19986;-76
2024/02/29 09:14:36;;;;;;;;;;;5.80;90.40;;;;;;5018012;28;19982;-76
2024/02/29 09:17:02;;;;;;;;;;;6.70;90.00;;;;;;5022955;28;20038;-75
2024/02/29 09:19:27;;;;;;;;;;;7.40;85.80;;;;;;5023430;28;20491;-76
2024/02/29 09:21:53;;;;;;;;;;;6.90;87.10;;;;;;5023881;28;20010;-76
2024/02/29 09:24:19;;;;;;;;;;;6.70;88.00;;;;;;5023917;28;20743;-76
2024/02/29 09:26:44;;;;;;;;;;;7.20;86.50;;;;;;5023121;28;19989;-76
2024/02/29 09:29:10;;;;;;;;;;;8.00;84.70;;;;;;5023901;28;20084;-76
2024/02/29 09:31:36;;;;;;;;;;;7.90;83.60;;;;;;5023794;28;19993;-76
2024/02/29 09:34:01;;;;;;;;;;;7.60;84.40;;;;;;5022156;28;20036;-76
2024/02/29 09:36:29;;;;;;;;;;;7.40;84.80;;;;;;5023703;28;19986;-75
2024/02/29 09:38:55;;;;;;;;;;;7.70;85.40;;;;;;5023252;28;20062;-76
2024/02/29 09:41:21;;;;;;;;;;;8.40;83.10;;;;;;5023194;28;19990;-76
2024/02/29 09:43:46;;;;;;;;;;;8.80;81.50;;;;;;5023391;28;20014;-76
2024/02/29 09:46:12;;;;;;;;;;;8.80;80.60;;;;;;5022957;28;20095;-76
2024/02/29 09:48:41;;;;;;;;;;;9.40;79.20;;;;;;5023175;28;20025;-76
2024/02/29 09:51:10;;;;;;;;;;;10.10;77.90;;;;;;5023516;28;20017;-76
2024/02/29 09:53:36;;;;;;;;;;;10.20;74.50;;;;;;5023503;28;19986;-76
2024/02/29 09:56:02;;;;;;;;;;;10.10;74.90;;;;;;5021306;28;19997;-76
2024/02/29 09:58:29;;;;;;;;;;;10.00;76.20;;;;;;5022928;28;19986;-76
2024/02/29 10:00:55;;;;;;;;;;;9.80;75.80;;;;;;5022691;28;19992;-76
2024/02/29 10:03:21;;;;;;;;;;;9.80;77.00;;;;;;5021492;28;20376;-76
2024/02/29 10:05:48;;;;;;;;;;;9.70;77.00;;;;;;5023245;28;19994;-76
2024/02/29 10:08:14;;;;;;;;;;;9.80;76.40;;;;;;5022636;28;20471;-76
2024/02/29 10:10:39;;;;;;;;;;;9.60;77.40;;;;;;5010183;28;19985;-76
2024/02/29 10:13:06;;;;;;;;;;;10.00;77.50;;;;;;5023005;28;20029;-76
2024/02/29 10:15:32;;;;;;;;;;;10.80;75.10;;;;;;5022473;28;20445;-76
2024/02/29 10:18:01;;;;;;;;;;;11.70;73.70;;;;;;5022634;28;19993;-76
2024/02/29 10:20:26;;;;;;;;;;;11.70;72.00;;;;;;5021609;28;20478;-76
2024/02/29 10:22:52;;;;;;;;;;;11.50;73.20;;;;;;5022787;28;20009;-75
2024/02/29 10:25:18;;;;;;;;;;;11.10;73.70;;;;;;5022645;28;20040;-76
2024/02/29 10:27:43;;;;;;;;;;;11.10;73.90;;;;;;5022922;28;19990;-76
2024/02/29 10:30:18;;;;;;;;;;;11.30;73.90;;;;;;5022742;28;20065;-76
2024/02/29 10:32:44;;;;;;;;;;;11.40;73.60;;;;;;5022896;28;20356;-76
2024/02/29 10:35:17;;;;;;;;;;;10.80;73.80;;;;;;5022806;28;19993;-76
2024/02/29 10:37:43;;;;;;;;;;;11.50;76.30;;;;;;5022535;28;20624;-76
2024/02/29 10:40:09;;;;;;;;;;;11.10;73.40;;;;;;5022422;28;20012;-76
2024/02/29 10:42:38;;;;;;;;;;;11.20;75.80;;;;;;5022351;28;20816;-76
2024/02/29 10:45:04;;;;;;;;;;;11.20;75.30;;;;;;5022824;28;19997;-76
2024/02/29 10:47:33;;;;;;;;;;;11.40;76.00;;;;;;5022395;28;20139;-76
2024/02/29 10:50:03;;;;;;;;;;;11.30;75.10;;;;;;5022642;28;20115;-76
2024/02/29 10:52:33;;;;;;;;;;;11.50;75.20;;;;;;5018681;28;19989;-76
2024/02/29 10:55:09;;;;;;;;;;;11.90;74.80;;;;;;5021619;28;19993;-76
2024/02/29 10:57:40;;;;;;;;;;;12.10;74.20;;;;;;5021343;28;20042;-76
2024/02/29 11:00:07;;;;;;;;;;;12.10;73.30;;;;;;5021349;28;20016;-77
2024/02/29 11:02:32;;;;;;;;;;;12.30;74.30;;;;;;5022411;28;20048;-76
2024/02/29 11:04:58;;;;;;;;;;;12.60;73.50;;;;;;5022569;28;19993;-76
2024/02/29 11:07:24;;;;;;;;;;;12.20;73.70;;;;;;5022508;28;19990;-77
2024/02/29 11:09:50;;;;;;;;;;;11.70;74.40;;;;;;5009894;28;20076;-76
2024/02/29 11:12:17;;;;;;;;;;;11.90;74.50;;;;;;5022100;28;20789;-77
2024/02/29 11:14:44;;;;;;;;;;;11.90;75.80;;;;;;5022178;28;19989;-76
2024/02/29 11:17:12;;;;;;;;;;;12.10;74.20;;;;;;5022474;28;19986;-77
2024/02/29 11:19:38;;;;;;;;;;;12.40;75.10;;;;;;5022406;28;20032;-76
2024/02/29 11:22:07;;;;;;;;;;;12.80;75.00;;;;;;5021737;28;20002;-76
2024/02/29 11:24:34;;;;;;;;;;;12.70;72.10;;;;;;5021969;28;19993;-76
2024/02/29 11:26:59;;;;;;;;;;;13.20;72.90;;;;;;5020575;28;19996;-76
2024/02/29 11:29:25;;;;;;;;;;;13.30;73.30;;;;;;5022302;28;19986;-77
2024/02/29 11:31:54;;;;;;;;;;;13.20;72.80;;;;;;5020033;28;19997;-76
2024/02/29 11:34:20;;;;;;;;;;;13.10;74.00;;;;;;5022008;28;20064;-75
2024/02/29 11:36:47;;;;;;;;;;;12.60;75.60;;;;;;5022140;28;19986;-76
2024/02/29 11:39:15;;;;;;;;;;;12.30;77.70;;;;;;5022042;28;20387;-76
2024/02/29 11:41:40;;;;;;;;;;;11.80;78.60;;;;;;5022322;28;20047;-76
2024/02/29 11:44:07;;;;;;;;;;;11.90;79.10;;;;;;5024521;28;20492;-76
2024/02/29 11:46:32;;;;;;;;;;;11.90;78.10;;;;;;5023757;28;19994;-76
2024/02/29 11:48:58;;;;;;;;;;;12.00;78.70;;;;;;5025348;28;20018;-76
2024/02/29 11:51:23;;;;;;;;;;;11.70;79.50;;;;;;5024992;28;20000;-77
2024/02/29 11:53:49;;;;;;;;;;;11.60;79.60;;;;;;5025503;28;20040;-77
2024/02/29 11:56:15;;;;;;;;;;;11.70;79.20;;;;;;5025326;28;20430;-76
2024/02/29 11:58:40;;;;;;;;;;;11.80;79.20;;;;;;5025440;28;19986;-76
2024/02/29 12:01:06;;;;;;;;;;;11.70;78.20;;;;;;5023375;28;20512;-76
2024/02/29 12:03:32;;;;;;;;;;;11.50;77.10;;;;;;5025565;28;20033;-76
2024/02/29 12:05:58;;;;;;;;;;;11.40;77.10;;;;;;5025665;28;19990;-76
2024/02/29 12:08:28;;;;;;;;;;;11.40;77.90;;;;;;5023764;28;19986;-76
2024/02/29 12:10:56;;;;;;;;;;;11.50;78.30;;;;;;5015486;28;19986;-76
2024/02/29 12:13:22;;;;;;;;;;;11.50;77.70;;;;;;5025611;28;20085;-76
2024/02/29 12:15:47;;;;;;;;;;;12.00;77.80;;;;;;5018457;28;20367;-76
2024/02/29 12:18:14;;;;;;;;;;;12.00;76.10;;;;;;5024997;28;20300;-76
2024/02/29 12:20:40;;;;;;;;;;;12.50;76.70;;;;;;5024680;28;19995;-76
2024/02/29 12:23:07;;;;;;;;;;;12.90;74.50;;;;;;5024903;28;20516;-76
2024/02/29 12:25:33;;;;;;;;;;;13.00;73.30;;;;;;5022125;28;19990;-76
2024/02/29 12:27:58;;;;;;;;;;;12.70;74.00;;;;;;5025413;28;20812;-76
2024/02/29 12:30:24;;;;;;;;;;;12.50;75.70;;;;;;5025276;28;20795;-77
2024/02/29 12:32:51;;;;;;;;;;;12.50;76.30;;;;;;5024554;28;20901;-77
2024/02/29 12:35:17;;;;;;;;;;;12.60;76.20;;;;;;5024800;28;20276;-76
2024/02/29 12:37:43;;;;;;;;;;;12.40;77.10;;;;;;5024941;28;20022;-76
2024/02/29 12:40:13;;;;;;;;;;;12.00;75.60;;;;;;5024586;28;19991;-76
2024/02/29 12:42:39;;;;;;;;;;;12.00;77.40;;;;;;5023546;28;20052;-76
2024/02/29 12:45:05;;;;;;;;;;;12.00;76.30;;;;;;5024856;28;19990;-76
2024/02/29 12:47:30;;;;;;;;;;;12.00;76.20;;;;;;5024707;28;19986;-76
2024/02/29 12:49:56;;;;;;;;;;;12.20;76.20;;;;;;5024907;28;20277;-76
2024/02/29 12:52:21;;;;;;;;;;;12.30;76.40;;;;;;5023339;28;20473;-77
2024/02/29 12:54:47;;;;;;;;;;;12.50;76.90;;;;;;5023858;28;19990;-76
2024/02/29 12:57:13;;;;;;;;;;;12.40;76.50;;;;;;5023922;28;20043;-76
2024/02/29 12:59:38;;;;;;;;;;;12.30;76.10;;;;;;5024440;28;20012;-76
2024/02/29 13:02:04;;;;;;;;;;;12.40;76.60;;;;;;5022710;28;20032;-76
2024/02/29 13:04:29;;;;;;;;;;;12.40;77.50;;;;;;5024552;28;20871;-76
2024/02/29 13:06:55;;;;;;;;;;;12.30;78.50;;;;;;5024630;28;20036;-76
2024/02/29 13:09:20;;;;;;;;;;;12.10;78.70;;;;;;5015286;28;20077;-76
2024/02/29 13:11:46;;;;;;;;;;;12.00;77.60;;;;;;5021761;28;19990;-76
2024/02/29 13:14:12;;;;;;;;;;;12.10;78.40;;;;;;5021194;28;20424;-76
2024/02/29 13:16:37;;;;;;;;;;;12.20;78.20;;;;;;5020330;28;19993;-76
2024/02/29 13:19:03;;;;;;;;;;;11.90;79.40;;;;;;5023659;28;19982;-76
2024/02/29 13:21:28;;;;;;;;;;;11.70;79.60;;;;;;5023621;28;19986;-76
2024/02/29 13:23:54;;;;;;;;;;;11.70;80.40;;;;;;5023500;28;20067;-76
2024/02/29 13:26:22;;;;;;;;;;;11.70;79.70;;;;;;5023519;28;19989;-77
2024/02/29 13:28:47;;;;;;;;;;;11.80;80.50;;;;;;5020295;28;19993;-76
2024/02/29 13:31:14;;;;;;;;;;;11.90;80.30;;;;;;5023614;28;19997;-77
2024/02/29 13:33:39;;;;;;;;;;;12.00;80.10;;;;;;5023373;28;20575;-77
2024/02/29 13:36:05;;;;;;;;;;;12.10;80.10;;;;;;5023309;28;20098;-76
2024/02/29 13:38:30;;;;;;;;;;;12.10;79.70;;;;;;5023379;28;20153;-76
2024/02/29 13:40:56;;;;;;;;;;;11.90;80.00;;;;;;5023737;28;19989;-76
2024/02/29 13:43:22;;;;;;;;;;;11.80;80.90;;;;;;5023425;28;20020;-76
2024/02/29 13:45:47;;;;;;;;;;;11.70;81.40;;;;;;5023229;28;20634;-76
2024/02/29 13:48:13;;;;;;;;;;;11.70;81.40;;;;;;5023885;28;20008;-77
2024/02/29 13:50:42;;;;;;;;;;;11.70;81.60;;;;;;5023234;28;20022;-76
2024/02/29 13:53:08;;;;;;;;;;;11.80;81.00;;;;;;5023256;28;20073;-76
2024/02/29 13:55:33;;;;;;;;;;;11.90;79.10;;;;;;5022861;28;20025;-77
2024/02/29 13:57:59;;;;;;;;;;;12.10;78.50;;;;;;5021818;28;20073;-76
2024/02/29 14:00:25;;;;;;;;;;;12.30;77.60;;;;;;5025759;28;19993;-77
2024/02/29 14:02:50;;;;;;;;;;;12.40;76.90;;;;;;5021621;28;20084;-76
2024/02/29 14:05:16;;;;;;;;;;;12.40;76.40;;;;;;5022369;28;20187;-76
2024/02/29 14:07:42;;;;;;;;;;;12.40;75.50;;;;;;5023101;28;20041;-76
2024/02/29 14:10:08;;;;;;;;;;;12.50;75.70;;;;;;5010785;28;20032;-77
2024/02/29 14:12:34;;;;;;;;;;;12.40;75.40;;;;;;5022864;28;20444;-76
2024/02/29 14:15:04;;;;;;;;;;;12.50;76.70;;;;;;5023038;28;20365;-77
2024/02/29 14:17:29;;;;;;;;;;;12.40;75.60;;;;;;5022459;28;19986;-77